Time;durP1;ratioP1;P1;durP2;ratioP2;P2;SDS_P1;SDS_P2;PMS_P1;PMS_P2;Temp;Humidity;BMP_temperature;BMP_pressure;BME280_temperature;BME280_humidity;BME280_pressure;Samples;Min_cycle;Max_cycle;Signal;HPM_P1;HPM_P2
2023/01/06 00:02:03;;;;;;;;;;;;;;;8.36;100.00;101473.88;5080671;28;22255;-77
2023/01/06 00:04:28;;;;;;;;;;;;;;;8.38;100.00;101479.97;5080703;28;19971;-76
2023/01/06 00:06:54;;;;;;;;;;;;;;;8.39;100.00;101471.19;5049464;28;19938;-77
2023/01/06 00:09:19;;;;;;;;;;;;;;;8.40;100.00;101457.09;5081277;28;19935;-77
2023/01/06 00:11:45;;;;;;;;;;;;;;;8.40;100.00;101457.09;5083307;28;19928;-76
2023/01/06 00:14:10;;;;;;;;;;;;;;;8.40;100.00;101457.09;5066137;28;19928;-77
2023/01/06 00:16:35;;;;;;;;;;;;;;;8.40;100.00;101457.09;5084261;28;19949;-78
2023/01/06 00:19:01;;;;;;;;;;;;;;;8.40;100.00;101467.63;5079653;28;19924;-77
2023/01/06 00:21:26;;;;;;;;;;;;;;;8.39;100.00;101461.47;5063364;28;19924;-77
2023/01/06 00:23:52;;;;;;;;;;;;;;;8.39;100.00;101466.75;5081593;28;20443;-77
2023/01/06 00:26:17;;;;;;;;;;;;;;;8.39;100.00;101466.75;5059691;28;20331;-77
2023/01/06 00:28:43;;;;;;;;;;;;;;;8.39;100.00;101458.00;5080201;28;20298;-77
2023/01/06 00:31:09;;;;;;;;;;;;;;;8.39;100.00;101455.34;5060717;28;20383;-77
2023/01/06 00:33:35;;;;;;;;;;;;;;;8.39;100.00;101463.28;5081021;28;20394;-76
2023/01/06 00:36:00;;;;;;;;;;;;;;;8.39;100.00;101468.56;5062769;28;20014;-77
2023/01/06 00:38:26;;;;;;;;;;;;;;;8.40;100.00;101467.63;5064315;28;20328;-77
2023/01/06 00:40:51;;;;;;;;;;;;;;;8.41;100.00;101461.44;5080746;28;19931;-77
2023/01/06 00:43:17;;;;;;;;;;;;;;;8.41;100.00;101470.22;5060548;28;20035;-77
2023/01/06 00:45:42;;;;;;;;;;;;;;;8.42;100.00;101440.31;5079587;28;19930;-77
2023/01/06 00:48:07;;;;;;;;;;;;;;;8.43;100.00;101451.72;5060575;28;19924;-77
2023/01/06 00:50:33;;;;;;;;;;;;;;;8.42;100.00;101450.88;5080842;28;19924;-77
2023/01/06 00:52:58;;;;;;;;;;;;;;;8.43;100.00;101443.78;5077951;28;20201;-77
2023/01/06 00:55:24;;;;;;;;;;;;;;;8.42;100.00;101440.31;5078658;28;19952;-77
2023/01/06 00:57:52;;;;;;;;;;;;;;;8.43;100.00;101438.53;5079436;28;20494;-77
2023/01/06 01:00:18;;;;;;;;;;;;;;;8.42;100.00;101431.50;5079646;28;20323;-76
2023/01/06 01:02:43;;;;;;;;;;;;;;;8.39;100.00;101434.25;5062653;28;19927;-77
2023/01/06 01:05:09;;;;;;;;;;;;;;;8.41;100.00;101432.44;5077595;28;20324;-76
2023/01/06 01:07:34;;;;;;;;;;;;;;;8.40;100.00;101423.63;5059411;28;19928;-76
2023/01/06 01:09:59;;;;;;;;;;;;;;;8.40;100.00;101425.41;5060436;28;19924;-76
2023/01/06 01:12:25;;;;;;;;;;;;;;;8.40;100.00;101425.41;5079614;28;20050;-76
2023/01/06 01:14:51;;;;;;;;;;;;;;;8.39;100.00;101415.78;5079220;28;20440;-76
2023/01/06 01:17:18;;;;;;;;;;;;;;;8.38;100.00;101417.53;5082232;28;19974;-76
2023/01/06 01:19:43;;;;;;;;;;;;;;;8.38;100.00;101425.44;5062313;28;19975;-76
2023/01/06 01:22:08;;;;;;;;;;;;;;;8.38;100.00;101416.66;5079907;28;20093;-76
2023/01/06 01:24:34;;;;;;;;;;;;;;;8.37;100.00;101418.44;5065259;28;19939;-76
2023/01/06 01:26:59;;;;;;;;;;;;;;;8.37;100.00;101417.56;5059641;28;19989;-76
2023/01/06 01:29:25;;;;;;;;;;;;;;;8.35;100.00;101416.75;5061161;28;20035;-76
2023/01/06 01:31:50;;;;;;;;;;;;;;;8.33;100.00;101413.31;5076901;28;19934;-76
2023/01/06 01:34:16;;;;;;;;;;;;;;;8.28;100.00;101410.75;5080263;28;19932;-76
2023/01/06 01:36:42;;;;;;;;;;;;;;;8.26;100.00;101410.81;5078650;28;19981;-76
2023/01/06 01:39:08;;;;;;;;;;;;;;;8.24;100.00;101412.63;5059858;28;20302;-76
2023/01/06 01:41:33;;;;;;;;;;;;;;;8.21;100.00;101412.72;5062370;28;19924;-76
2023/01/06 01:44:00;;;;;;;;;;;;;;;8.19;100.00;101411.91;5065232;28;19935;-76
2023/01/06 01:46:33;;;;;;;;;;;;;;;8.19;100.00;101400.47;5081682;28;20009;-75
2023/01/06 01:49:00;;;;;;;;;;;;;;;8.17;100.00;101395.22;5072741;28;19924;-77
2023/01/06 01:51:29;;;;;;;;;;;;;;;8.18;100.00;101398.75;5063137;28;19923;-76
2023/01/06 01:53:56;;;;;;;;;;;;;;;8.17;100.00;101389.94;5063294;28;20322;-76
2023/01/06 01:56:22;;;;;;;;;;;;;;;8.17;100.00;101389.09;5080385;28;19930;-76
2023/01/06 01:58:49;;;;;;;;;;;;;;;8.16;100.00;101382.94;5065981;28;19935;-76
2023/01/06 02:01:15;;;;;;;;;;;;;;;8.18;100.00;101398.75;5061744;28;20416;-76
2023/01/06 02:03:40;;;;;;;;;;;;;;;8.16;100.00;101390.84;5064383;28;19923;-76
2023/01/06 02:06:08;;;;;;;;;;;;;;;8.17;100.00;101381.19;5084540;28;19924;-76
2023/01/06 02:08:35;;;;;;;;;;;;;;;8.15;100.00;101405.84;5060722;28;19928;-77
2023/01/06 02:11:01;;;;;;;;;;;;;;;8.15;100.00;101399.69;5062527;28;19930;-77
2023/01/06 02:13:26;;;;;;;;;;;;;;;8.15;100.00;101389.13;5064100;28;19928;-76
2023/01/06 02:15:53;;;;;;;;;;;;;;;8.15;100.00;101378.59;5044359;28;20380;-76
2023/01/06 02:18:18;;;;;;;;;;;;;;;8.17;100.00;101386.47;5062499;28;19932;-76
2023/01/06 02:20:47;;;;;;;;;;;;;;;8.20;100.00;101374.06;5065925;28;19924;-76
2023/01/06 02:23:21;;;;;;;;;;;;;;;8.23;100.00;101365.19;5082691;28;19936;-76
2023/01/06 02:25:53;;;;;;;;;;;;;;;8.24;100.00;101365.13;5080596;28;19968;-76
2023/01/06 02:28:21;;;;;;;;;;;;;;;8.26;100.00;101359.81;5065189;28;19928;-76
2023/01/06 02:31:07;;;;;;;;;;;;;;;8.26;100.00;101355.44;5079358;28;20597;-76
2023/01/06 02:33:56;;;;;;;;;;;;;;;8.29;100.00;101341.28;5081795;28;20001;-76
2023/01/06 02:36:25;;;;;;;;;;;;;;;8.29;100.00;101344.78;5056894;28;19928;-76
2023/01/06 02:39:00;;;;;;;;;;;;;;;8.30;100.00;101348.28;5048051;28;19928;-76
2023/01/06 02:41:30;;;;;;;;;;;;;;;8.32;100.00;101353.53;5081691;28;19932;-75
2023/01/06 02:43:59;;;;;;;;;;;;;;;8.31;100.00;101341.22;5063086;28;19951;-75
2023/01/06 02:46:43;;;;;;;;;;;;;;;8.32;100.00;101348.25;5080766;28;20340;-76
2023/01/06 02:49:29;;;;;;;;;;;;;;;8.30;100.00;101337.75;5082691;28;19928;-76
2023/01/06 02:51:57;;;;;;;;;;;;;;;8.27;100.00;101332.53;5062360;28;19924;-76
2023/01/06 02:54:42;;;;;;;;;;;;;;;8.26;100.00;101328.16;5081007;28;19930;-76
2023/01/06 02:57:10;;;;;;;;;;;;;;;8.24;100.00;101315.00;5083366;28;20083;-77
2023/01/06 02:59:37;;;;;;;;;;;;;;;8.22;100.00;101316.84;5080646;28;19930;-76
2023/01/06 03:02:02;;;;;;;;;;;;;;;8.22;100.00;101310.72;5080322;28;19928;-76
2023/01/06 03:04:29;;;;;;;;;;;;;;;8.21;100.00;101291.38;5082757;28;19923;-76
2023/01/06 03:06:55;;;;;;;;;;;;;;;8.21;100.00;101283.47;5063099;28;19924;-76
2023/01/06 03:09:22;;;;;;;;;;;;;;;8.21;100.00;101286.09;5061602;28;19936;-76
2023/01/06 03:11:47;;;;;;;;;;;;;;;8.20;100.00;101284.38;5064498;28;19928;-76
2023/01/06 03:14:19;;;;;;;;;;;;;;;8.22;100.00;101286.97;5066805;28;20549;-76
2023/01/06 03:16:45;;;;;;;;;;;;;;;8.22;100.00;101274.63;5050101;28;20345;-76
2023/01/06 03:19:10;;;;;;;;;;;;;;;8.23;100.00;101273.72;5063413;28;19931;-76
2023/01/06 03:21:36;;;;;;;;;;;;;;;8.25;100.00;101268.41;5063307;28;20290;-76
2023/01/06 03:24:05;;;;;;;;;;;;;;;8.26;100.00;101260.47;5061281;28;19932;-76
2023/01/06 03:26:31;;;;;;;;;;;;;;;8.28;100.00;101263.91;5080623;28;19927;-75
2023/01/06 03:28:56;;;;;;;;;;;;;;;8.31;100.00;101267.34;5060895;28;20555;-75
2023/01/06 03:31:28;;;;;;;;;;;;;;;8.32;100.00;101258.56;5061089;28;19924;-76
2023/01/06 03:34:12;;;;;;;;;;;;;;;8.32;100.00;101264.69;5061714;28;20617;-76
2023/01/06 03:36:42;;;;;;;;;;;;;;;8.33;100.00;101255.00;5062711;28;19931;-76
2023/01/06 03:39:11;;;;;;;;;;;;;;;8.34;100.00;101246.19;5080676;28;19928;-75
2023/01/06 03:44:32;;;;;;;;;;;;;;;8.34;100.00;101235.63;5078892;28;19931;-76
2023/01/06 03:47:11;;;;;;;;;;;;;;;8.35;100.00;101239.97;5080699;28;20589;-75
2023/01/06 03:50:12;;;;;;;;;;;;;;;8.36;100.00;101229.41;5064200;28;20420;-75
2023/01/06 03:52:55;;;;;;;;;;;;;;;8.40;100.00;101224.88;4986126;28;19929;-76
2023/01/06 03:55:22;;;;;;;;;;;;;;;8.40;100.00;101207.25;5042541;28;20427;-75
2023/01/06 03:57:51;;;;;;;;;;;;;;;8.42;100.00;101204.59;5080627;28;20049;-76
2023/01/06 04:00:26;;;;;;;;;;;;;;;8.42;100.00;101200.19;5057973;28;19927;-75
2023/01/06 04:02:51;;;;;;;;;;;;;;;8.43;100.00;101198.41;5046212;28;19978;-75
2023/01/06 04:05:18;;;;;;;;;;;;;;;8.43;100.00;101206.31;5080404;28;20010;-75
2023/01/06 04:07:43;;;;;;;;;;;;;;;8.45;100.00;101191.31;5079321;28;20635;-76
2023/01/06 04:10:09;;;;;;;;;;;;;;;8.47;100.00;101209.72;5080846;28;19939;-76
2023/01/06 04:12:38;;;;;;;;;;;;;;;8.48;100.00;101195.59;5063563;28;19999;-76
2023/01/06 04:15:04;;;;;;;;;;;;;;;8.50;100.00;101189.38;5078661;28;20029;-76
2023/01/06 04:17:30;;;;;;;;;;;;;;;8.52;100.00;101195.53;5051247;28;19951;-75
2023/01/06 04:19:58;;;;;;;;;;;;;;;8.54;100.00;101200.72;5063414;28;20015;-76
2023/01/06 04:22:23;;;;;;;;;;;;;;;8.55;100.00;101183.97;5062598;28;20362;-75
2023/01/06 04:24:49;;;;;;;;;;;;;;;8.55;100.00;101173.44;5079933;28;20521;-76
2023/01/06 04:27:14;;;;;;;;;;;;;;;8.58;100.00;101180.38;5082405;28;19939;-76
2023/01/06 04:29:39;;;;;;;;;;;;;;;8.57;100.00;101171.63;5073775;28;19974;-75
2023/01/06 04:32:05;;;;;;;;;;;;;;;8.58;100.00;101167.19;5083899;28;19935;-75
2023/01/06 04:34:30;;;;;;;;;;;;;;;8.59;100.00;101161.00;5083045;28;19939;-75
2023/01/06 04:36:56;;;;;;;;;;;;;;;8.60;100.00;101160.09;5082943;28;19982;-75
2023/01/06 04:39:21;;;;;;;;;;;;;;;8.59;100.00;101166.28;5084934;28;19928;-75
2023/01/06 04:41:46;;;;;;;;;;;;;;;8.60;100.00;101160.09;5085395;28;19977;-76
2023/01/06 04:44:12;;;;;;;;;;;;;;;8.61;100.00;101152.13;5082673;28;19932;-75
2023/01/06 04:46:37;;;;;;;;;;;;;;;8.62;100.00;101156.50;5084131;28;20030;-76
2023/01/06 04:49:02;;;;;;;;;;;;;;;8.61;100.00;101154.75;5065578;28;20018;-76
2023/01/06 04:51:28;;;;;;;;;;;;;;;8.62;100.00;101160.91;5082843;28;19932;-75
2023/01/06 04:53:53;;;;;;;;;;;;;;;8.61;100.00;101151.28;5084598;28;19973;-76
2023/01/06 04:56:18;;;;;;;;;;;;;;;8.61;100.00;101154.75;5065679;28;20123;-76
2023/01/06 04:58:44;;;;;;;;;;;;;;;8.60;100.00;101149.56;5061073;28;20287;-75
2023/01/06 05:01:10;;;;;;;;;;;;;;;8.59;100.00;101130.19;5076963;28;20513;-76
2023/01/06 05:03:36;;;;;;;;;;;;;;;8.58;100.00;101136.41;5079018;28;20020;-76
2023/01/06 05:06:02;;;;;;;;;;;;;;;8.56;100.00;101117.97;5057972;28;20442;-75
2023/01/06 05:08:28;;;;;;;;;;;;;;;8.58;100.00;101117.91;5043518;28;19988;-75
2023/01/06 05:11:04;;;;;;;;;;;;;;;8.58;100.00;101123.19;5060824;28;19920;-75
2023/01/06 05:13:32;;;;;;;;;;;;;;;8.55;100.00;101108.31;5060455;28;20061;-75
2023/01/06 05:15:58;;;;;;;;;;;;;;;8.53;100.00;101120.72;5060873;28;20311;-76
2023/01/06 05:18:23;;;;;;;;;;;;;;;8.50;100.00;101104.94;5061516;28;19932;-75
2023/01/06 05:20:52;;;;;;;;;;;;;;;8.47;100.00;101105.03;5060593;28;20169;-76
2023/01/06 05:23:18;;;;;;;;;;;;;;;8.41;100.00;101097.31;5059926;28;19980;-76
2023/01/06 05:25:43;;;;;;;;;;;;;;;8.38;100.00;101105.31;5060406;28;19924;-76
2023/01/06 05:28:09;;;;;;;;;;;;;;;8.32;100.00;101100.28;5062340;28;19923;-75
2023/01/06 05:30:34;;;;;;;;;;;;;;;8.28;100.00;101089.81;5084268;28;19971;-75
2023/01/06 05:32:59;;;;;;;;;;;;;;;8.26;100.00;101091.63;5084510;28;19974;-75
2023/01/06 05:35:27;;;;;;;;;;;;;;;8.24;100.00;101105.78;5081143;28;19924;-75
2023/01/06 05:37:53;;;;;;;;;;;;;;;8.20;100.00;101105.00;5079288;28;19935;-75
2023/01/06 05:40:19;;;;;;;;;;;;;;;8.17;100.00;101096.34;5048403;28;19931;-76
2023/01/06 05:42:44;;;;;;;;;;;;;;;8.15;100.00;101101.66;5079807;28;19924;-76
2023/01/06 05:45:10;;;;;;;;;;;;;;;8.13;100.00;101098.22;5049299;28;20003;-76
2023/01/06 05:47:35;;;;;;;;;;;;;;;8.11;100.00;101100.00;5080287;28;19976;-75
2023/01/06 05:50:01;;;;;;;;;;;;;;;8.09;100.00;101094.81;5079669;28;20512;-76
2023/01/06 05:52:26;;;;;;;;;;;;;;;8.08;100.00;101084.28;5076118;28;19931;-76
2023/01/06 05:54:51;;;;;;;;;;;;;;;8.05;100.00;101065.94;5080189;28;19943;-75
2023/01/06 05:57:17;;;;;;;;;;;;;;;8.04;100.00;101086.16;5081894;28;19938;-75
2023/01/06 05:59:42;;;;;;;;;;;;;;;8.04;100.00;101082.66;5079403;28;19931;-76
2023/01/06 06:02:08;;;;;;;;;;;;;;;8.01;100.00;101079.22;5061262;28;19931;-76
2023/01/06 06:04:33;;;;;;;;;;;;;;;7.99;100.00;101088.06;5068413;28;20440;-77
2023/01/06 06:06:58;;;;;;;;;;;;;;;7.98;100.00;101097.78;5077633;28;19935;-76
2023/01/06 06:09:24;;;;;;;;;;;;;;;7.98;100.00;101102.16;5073838;28;19936;-77
2023/01/06 06:11:50;;;;;;;;;;;;;;;7.96;100.00;101104.84;5079246;28;19928;-76
2023/01/06 06:14:16;;;;;;;;;;;;;;;7.96;100.00;101101.38;5058198;28;19927;-76
2023/01/06 06:16:41;;;;;;;;;;;;;;;7.94;100.00;101103.16;5079091;28;20064;-77
2023/01/06 06:19:06;;;;;;;;;;;;;;;7.94;100.00;101103.16;5077261;28;20018;-76
2023/01/06 06:21:32;;;;;;;;;;;;;;;7.94;100.00;101113.69;5081881;28;19953;-76
2023/01/06 06:23:58;;;;;;;;;;;;;;;7.93;100.00;101110.22;5064951;28;19924;-76
2023/01/06 06:26:23;;;;;;;;;;;;;;;7.94;100.00;101104.03;5081462;28;19963;-76
2023/01/06 06:28:49;;;;;;;;;;;;;;;7.95;100.00;101113.66;5082258;28;19924;-77
2023/01/06 06:31:19;;;;;;;;;;;;;;;7.96;100.00;101115.38;5079373;28;19939;-76
2023/01/06 06:33:44;;;;;;;;;;;;;;;7.97;100.00;101116.25;5054634;28;19973;-76
2023/01/06 06:36:11;;;;;;;;;;;;;;;7.98;100.00;101112.72;5082715;28;19924;-76
2023/01/06 06:38:37;;;;;;;;;;;;;;;8.02;100.00;101114.38;5063900;28;19928;-76
2023/01/06 06:41:02;;;;;;;;;;;;;;;8.05;100.00;101108.97;5052457;28;20425;-76
2023/01/06 06:43:28;;;;;;;;;;;;;;;8.08;100.00;101103.63;5081902;28;21653;-76
2023/01/06 06:45:53;;;;;;;;;;;;;;;8.10;100.00;101120.25;5079219;28;22066;-76
2023/01/06 06:48:18;;;;;;;;;;;;;;;8.13;100.00;101124.56;5082833;28;19942;-76
2023/01/06 06:50:44;;;;;;;;;;;;;;;8.15;100.00;101120.09;5081917;28;19928;-76
2023/01/06 06:53:09;;;;;;;;;;;;;;;8.17;100.00;101120.91;5061367;28;20444;-76
2023/01/06 06:55:35;;;;;;;;;;;;;;;8.16;100.00;101132.38;5080958;28;19971;-76
2023/01/06 06:58:00;;;;;;;;;;;;;;;8.16;100.00;101135.03;5083859;28;20033;-76
2023/01/06 07:00:26;;;;;;;;;;;;;;;8.20;100.00;101143.69;5067686;28;19932;-76
2023/01/06 07:02:51;;;;;;;;;;;;;;;8.23;100.00;101162.94;5058906;28;20644;-76
2023/01/06 07:05:17;;;;;;;;;;;;;;;8.25;100.00;101181.34;5046820;28;20361;-76
2023/01/06 07:07:42;;;;;;;;;;;;;;;8.28;100.00;101170.69;5085815;28;20318;-75
2023/01/06 07:10:11;;;;;;;;;;;;;;;8.27;100.00;101182.16;5085135;28;20395;-77
2023/01/06 07:12:36;;;;;;;;;;;;;;;8.20;100.00;101184.13;5068590;28;19923;-76
2023/01/06 07:15:02;;;;;;;;;;;;;;;8.11;100.00;101194.94;5086693;28;19939;-76
2023/01/06 07:17:27;;;;;;;;;;;;;;;7.99;100.00;101197.06;5084267;28;19932;-76
2023/01/06 07:19:53;;;;;;;;;;;;;;;7.86;100.00;101211.50;5086910;28;20093;-75
2023/01/06 07:22:18;;;;;;;;;;;;;;;7.71;100.00;101205.75;5082944;28;21100;-76
2023/01/06 07:24:43;;;;;;;;;;;;;;;7.56;100.00;101222.84;5085785;28;20055;-76
2023/01/06 07:27:09;;;;;;;;;;;;;;;7.44;100.00;101228.41;5067796;28;19939;-76
2023/01/06 07:29:34;;;;;;;;;;;;;;;7.34;100.00;101227.78;5048785;28;19935;-76
2023/01/06 07:32:00;;;;;;;;;;;;;;;7.22;100.00;101233.38;5064048;28;19928;-76
2023/01/06 07:34:25;;;;;;;;;;;;;;;7.10;100.00;101230.16;5082469;28;21465;-76
2023/01/06 07:36:50;;;;;;;;;;;;;;;6.99;100.00;101240.06;5065616;28;19931;-76
2023/01/06 07:39:16;;;;;;;;;;;;;;;6.90;100.00;101249.06;5084866;28;20019;-76
2023/01/06 07:41:41;;;;;;;;;;;;;;;6.81;100.00;101255.38;5086176;28;19936;-76
2023/01/06 07:44:07;;;;;;;;;;;;;;;6.71;100.00;101260.00;5085731;28;19927;-77
2023/01/06 07:46:32;;;;;;;;;;;;;;;6.63;100.00;101261.94;5081528;28;20373;-76
2023/01/06 07:48:57;;;;;;;;;;;;;;;6.56;100.00;101266.47;5081418;28;19932;-77
2023/01/06 07:51:23;;;;;;;;;;;;;;;6.49;100.00;101267.50;5078749;28;19981;-76
2023/01/06 07:53:48;;;;;;;;;;;;;;;6.41;100.00;101267.66;5068199;28;20087;-74
2023/01/06 07:56:14;;;;;;;;;;;;;;;6.33;100.00;101275.72;5080801;28;19993;-74
2023/01/06 07:58:39;;;;;;;;;;;;;;;6.28;100.00;101287.22;5061559;28;19931;-74
2023/01/06 08:01:05;;;;;;;;;;;;;;;6.20;100.00;101288.25;5060089;28;20026;-74
2023/01/06 08:03:31;;;;;;;;;;;;;;;6.17;100.00;101300.59;5060618;28;19971;-74
2023/01/06 08:05:56;;;;;;;;;;;;;;;6.10;100.00;101295.47;5059687;28;20589;-75
2023/01/06 08:08:22;;;;;;;;;;;;;;;6.06;100.00;101303.44;5044939;28;19940;-75
2023/01/06 08:10:47;;;;;;;;;;;;;;;6.02;100.00;101306.97;5046566;28;20359;-74
2023/01/06 08:13:13;;;;;;;;;;;;;;;5.99;100.00;101323.66;5080964;28;20393;-74
2023/01/06 08:15:38;;;;;;;;;;;;;;;5.96;100.00;101324.63;5063091;28;20023;-75
2023/01/06 08:18:04;;;;;;;;;;;;;;;5.94;100.00;101321.13;5062286;28;19927;-75
2023/01/06 08:20:29;;;;;;;;;;;;;;;5.92;100.00;101316.78;5061565;28;21191;-74
2023/01/06 08:22:56;;;;;;;;;;;;;;;5.90;100.00;101322.09;5080929;28;20338;-75
2023/01/06 08:25:24;;;;;;;;;;;;;;;5.89;100.00;101319.50;5077518;28;20078;-76
2023/01/06 08:27:50;;;;;;;;;;;;;;;5.89;100.00;101322.13;5056858;28;19928;-75
2023/01/06 08:30:20;;;;;;;;;;;;;;;5.87;100.00;101316.88;5063313;28;19924;-73
2023/01/06 08:32:46;;;;;;;;;;;;;;;5.87;100.00;101327.41;5081605;28;21515;-76
2023/01/06 08:35:11;;;;;;;;;;;;;;;5.85;100.00;101332.66;5064242;28;20036;-76
2023/01/06 08:37:37;;;;;;;;;;;;;;;5.84;100.00;101336.19;5078250;28;19939;-75
2023/01/06 08:40:03;;;;;;;;;;;;;;;5.83;100.00;101331.84;5073963;28;19927;-75
2023/01/06 08:42:28;;;;;;;;;;;;;;;5.83;100.00;101337.09;5083187;28;19943;-76
2023/01/06 08:44:54;;;;;;;;;;;;;;;5.82;100.00;101348.50;5084567;28;19928;-76
2023/01/06 08:47:19;;;;;;;;;;;;;;;5.82;100.00;101352.88;5082751;28;20305;-75
2023/01/06 08:49:44;;;;;;;;;;;;;;;5.81;100.00;101352.03;5076695;28;20285;-75
2023/01/06 08:52:10;;;;;;;;;;;;;;;5.81;100.00;101362.53;5080349;28;20206;-76
2023/01/06 08:54:35;;;;;;;;;;;;;;;5.83;100.00;101366.00;5080805;28;19984;-75
2023/01/06 08:57:01;;;;;;;;;;;;;;;5.86;100.00;101359.84;5080338;28;20326;-76
2023/01/06 08:59:29;;;;;;;;;;;;;;;5.90;100.00;101358.91;5081715;28;20008;-76
2023/01/06 09:01:54;;;;;;;;;;;;;;;5.92;100.00;101364.97;5079333;28;19975;-77
2023/01/06 09:04:20;;;;;;;;;;;;;;;5.95;100.00;101364.06;5079451;28;20014;-76
2023/01/06 09:06:46;;;;;;;;;;;;;;;5.98;100.00;101369.25;5076992;28;19961;-76
2023/01/06 09:09:11;;;;;;;;;;;;;;;6.00;100.00;101382.38;5081159;28;22480;-76
2023/01/06 09:11:39;;;;;;;;;;;;;;;6.02;100.00;101397.25;5076874;28;19959;-77
2023/01/06 09:14:04;;;;;;;;;;;;;;;6.05;100.00;101402.44;5052594;28;19928;-78
2023/01/06 09:16:30;;;;;;;;;;;;;;;6.09;100.00;101409.41;5037628;28;19924;-76
2023/01/06 09:18:55;;;;;;;;;;;;;;;6.14;100.00;101419.84;5075456;28;19953;-77
2023/01/06 09:21:21;;;;;;;;;;;;;;;6.19;100.00;101417.13;5041728;28;20357;-75
2023/01/06 09:23:47;;;;;;;;;;;;;;;6.26;100.00;101416.09;5079672;28;19935;-76
2023/01/06 09:26:15;;;;;;;;;;;;;;;6.32;100.00;101423.88;5061496;28;20372;-76
2023/01/06 09:28:40;;;;;;;;;;;;;;;6.37;100.00;101429.06;5080055;28;20037;-75
2023/01/06 09:31:06;;;;;;;;;;;;;;;6.39;100.00;101440.44;5058539;28;19931;-76
2023/01/06 09:33:31;;;;;;;;;;;;;;;6.44;100.00;101448.25;5057964;28;19935;-76
2023/01/06 09:35:57;;;;;;;;;;;;;;;6.49;100.00;101454.28;5077312;28;20484;-75
2023/01/06 09:38:22;;;;;;;;;;;;;;;6.54;100.00;101462.94;5079025;28;20085;-76
2023/01/06 09:40:48;;;;;;;;;;;;;;;6.60;100.00;101452.31;5060237;28;20592;-77
2023/01/06 09:43:26;;;;;;;;;;;;;;;6.65;100.00;101447.84;5070356;28;19928;-75
2023/01/06 09:45:52;;;;;;;;;;;;;;;6.69;100.00;101450.41;5060464;28;20220;-76
2023/01/06 09:48:20;;;;;;;;;;;;;;;6.71;100.00;101448.63;5058681;28;20119;-76
2023/01/06 09:50:53;;;;;;;;;;;;;;;6.72;100.00;101448.59;5057945;28;20271;-76
2023/01/06 09:53:19;;;;;;;;;;;;;;;6.74;100.00;101459.06;5078331;28;20282;-77
2023/01/06 09:55:51;;;;;;;;;;;;;;;6.77;100.00;101465.13;5059077;28;19928;-76
2023/01/06 09:58:17;;;;;;;;;;;;;;;6.78;100.00;101456.38;5078331;28;19920;-77
2023/01/06 10:00:43;;;;;;;;;;;;;;;6.82;100.00;101470.34;5044472;28;19932;-77
2023/01/06 10:03:11;;;;;;;;;;;;;;;6.85;100.00;101472.91;5073578;28;19928;-77
2023/01/06 10:05:49;;;;;;;;;;;;;;;6.87;100.00;101484.25;5057453;28;20010;-77
2023/01/06 10:08:27;;;;;;;;;;;;;;;6.88;100.00;101480.75;5072662;28;19932;-77
2023/01/06 10:10:55;;;;;;;;;;;;;;;6.90;100.00;101486.84;5074052;28;19957;-77
2023/01/06 10:13:20;;;;;;;;;;;;;;;6.92;100.00;101495.56;5073589;28;19929;-77
2023/01/06 10:15:47;;;;;;;;;;;;;;;6.94;100.00;101492.91;5043625;28;19975;-77
2023/01/06 10:18:16;;;;;;;;;;;;;;;6.95;100.00;101493.75;5070447;27;19927;-77
2023/01/06 10:20:43;;;;;;;;;;;;;;;6.98;100.00;101504.25;5054055;28;19932;-77
2023/01/06 10:23:27;;;;;;;;;;;;;;;7.01;100.00;101498.91;5074639;28;19935;-77
2023/01/06 10:25:53;;;;;;;;;;;;;;;7.03;100.00;101497.13;5075019;28;19936;-77
2023/01/06 10:28:21;;;;;;;;;;;;;;;7.05;100.00;101490.06;5058550;28;19935;-77
2023/01/06 10:30:49;;;;;;;;;;;;;;;7.07;100.00;101493.53;5064344;28;19935;-80
2023/01/06 10:33:25;;;;;;;;;;;;;;;7.08;100.00;101497.88;5059902;28;20030;-77
2023/01/06 10:35:51;;;;;;;;;;;;;;;7.10;100.00;101501.38;5075397;28;20014;-76
2023/01/06 10:38:16;;;;;;;;;;;;;;;7.13;100.00;101503.09;5054042;28;20001;-77
2023/01/06 10:40:42;;;;;;;;;;;;;;;7.13;100.00;101497.81;5056672;28;19954;-76
2023/01/06 10:43:08;;;;;;;;;;;;;;;7.14;100.00;101507.44;5055735;28;19924;-76
2023/01/06 10:45:33;;;;;;;;;;;;;;;7.12;100.00;101507.47;5052870;28;19928;-77
2023/01/06 10:47:59;;;;;;;;;;;;;;;7.13;100.00;101503.09;5055731;28;19928;-76
2023/01/06 10:50:25;;;;;;;;;;;;;;;7.12;100.00;101502.19;5055589;28;19932;-76
2023/01/06 10:52:50;;;;;;;;;;;;;;;7.16;100.00;101498.63;5053869;28;20776;-75
2023/01/06 10:55:22;;;;;;;;;;;;;;;7.18;100.00;101501.19;5072554;28;19928;-76
2023/01/06 10:57:47;;;;;;;;;;;;;;;7.20;100.00;101500.28;5072618;28;20404;-77
2023/01/06 11:00:14;;;;;;;;;;;;;;;7.23;100.00;101511.66;5054919;28;19928;-77
2023/01/06 11:02:44;;;;;;;;;;;;;;;7.24;100.00;101505.50;5074583;27;19927;-76
2023/01/06 11:05:13;;;;;;;;;;;;;;;7.26;100.00;101507.19;5071883;28;19934;-76
2023/01/06 11:07:44;;;;;;;;;;;;;;;7.28;100.00;101507.13;5055891;28;19932;-76
2023/01/06 11:10:19;;;;;;;;;;;;;;;7.29;100.00;101498.34;5037611;28;19927;-76
2023/01/06 11:12:45;;;;;;;;;;;;;;;7.33;100.00;101502.66;5054332;28;19934;-76
2023/01/06 11:15:14;;;;;;;;;;;;;;;7.34;100.00;101500.00;5052291;28;20295;-76
2023/01/06 11:17:39;;;;;;;;;;;;;;;7.38;100.00;101497.28;5055083;28;19935;-77
2023/01/06 11:20:05;;;;;;;;;;;;;;;7.41;100.00;101497.22;5054255;28;19923;-77
2023/01/06 11:22:34;;;;;;;;;;;;;;;7.43;100.00;101496.28;5071382;27;20370;-76
2023/01/06 11:25:00;;;;;;;;;;;;;;;7.45;100.00;101491.84;5045253;28;19950;-76
2023/01/06 11:27:25;;;;;;;;;;;;;;;7.46;100.00;101487.44;5054406;28;20407;-76
2023/01/06 11:29:50;;;;;;;;;;;;;;;7.46;100.00;101484.78;5068934;28;19981;-76
2023/01/06 11:32:19;;;;;;;;;;;;;;;7.50;100.00;101482.97;5030311;28;19933;-77
2023/01/06 11:34:58;;;;;;;;;;;;;;;7.49;100.00;101490.00;5072396;28;19935;-76
2023/01/06 11:37:34;;;;;;;;;;;;;;;7.50;100.00;101490.88;5050903;28;20202;-78
2023/01/06 11:40:01;;;;;;;;;;;;;;;7.52;100.00;101491.72;5039139;28;19924;-77
2023/01/06 11:42:29;;;;;;;;;;;;;;;7.52;100.00;101494.34;5055493;28;22066;-76
2023/01/06 11:44:54;;;;;;;;;;;;;;;7.52;100.00;101489.94;5053375;28;20570;-77
2023/01/06 11:47:21;;;;;;;;;;;;;;;7.51;100.00;101495.25;5073811;28;19977;-78
2023/01/06 11:49:47;;;;;;;;;;;;;;;7.51;100.00;101497.91;5055759;28;19980;-76
2023/01/06 11:52:31;;;;;;;;;;;;;;;7.51;100.00;101498.75;5073770;27;20643;-77
2023/01/06 11:54:58;;;;;;;;;;;;;;;7.52;100.00;101504.91;5060653;28;20036;-77
2023/01/06 11:57:34;;;;;;;;;;;;;;;7.52;100.00;101499.63;5077642;28;19935;-77
2023/01/06 12:00:18;;;;;;;;;;;;;;;7.52;100.00;101497.84;5078152;28;19924;-77
2023/01/06 12:02:44;;;;;;;;;;;;;;;7.52;100.00;101494.34;5064823;28;19930;-77
2023/01/06 12:05:14;;;;;;;;;;;;;;;7.53;100.00;101496.09;5081167;28;19927;-77
2023/01/06 12:07:42;;;;;;;;;;;;;;;7.53;100.00;101494.34;5054237;28;20044;-77
2023/01/06 12:10:12;;;;;;;;;;;;;;;7.53;100.00;101499.59;5056111;28;19935;-77
2023/01/06 12:12:37;;;;;;;;;;;;;;;7.52;100.00;101497.00;5080592;28;19971;-77
2023/01/06 12:15:12;;;;;;;;;;;;;;;7.52;100.00;101497.00;5076189;28;20689;-77
2023/01/06 12:17:42;;;;;;;;;;;;;;;7.50;100.00;101502.28;5069436;28;19928;-77
2023/01/06 12:20:13;;;;;;;;;;;;;;;7.47;100.00;101508.47;5076950;28;20302;-77
2023/01/06 12:22:49;;;;;;;;;;;;;;;7.47;100.00;101512.91;5057581;28;20043;-77
2023/01/06 12:25:18;;;;;;;;;;;;;;;7.46;100.00;101519.94;5048162;28;19970;-76
2023/01/06 12:27:48;;;;;;;;;;;;;;;7.44;100.00;101513.84;5064180;28;19996;-77
2023/01/06 12:30:15;;;;;;;;;;;;;;;7.41;100.00;101508.63;5051563;28;19928;-76
2023/01/06 12:32:43;;;;;;;;;;;;;;;7.43;100.00;101516.50;5065018;28;19969;-76
2023/01/06 12:35:10;;;;;;;;;;;;;;;7.42;100.00;101523.53;5080011;28;19931;-76
2023/01/06 12:37:37;;;;;;;;;;;;;;;7.43;100.00;101519.13;5084647;28;19934;-76
2023/01/06 12:40:09;;;;;;;;;;;;;;;7.43;100.00;101517.38;5066996;28;20464;-76